Time;durP1;ratioP1;P1;durP2;ratioP2;P2;SDS_P1;SDS_P2;PMS_P1;PMS_P2;Temp;Humidity;BMP_temperature;BMP_pressure;BME280_temperature;BME280_humidity;BME280_pressure;Samples;Min_cycle;Max_cycle;Signal;HPM_P1;HPM_P2
2022/04/20 00:01:29;;;;;;;15.90;8.20;;;10.50;99.90;;;;;;5028352;28;20080;-59
2022/04/20 00:03:56;;;;;;;13.27;7.97;;;10.50;99.90;;;;;;5020846;28;20049;-60
2022/04/20 00:06:23;;;;;;;18.38;9.10;;;10.50;99.90;;;;;;5030361;28;20054;-60
2022/04/20 00:08:50;;;;;;;14.43;9.02;;;10.50;99.90;;;;;;5031482;28;20075;-60
2022/04/20 00:11:17;;;;;;;16.20;8.73;;;10.40;99.90;;;;;;5031443;28;20088;-59
2022/04/20 00:13:43;;;;;;;19.63;9.10;;;10.40;99.90;;;;;;5029957;28;20049;-61
2022/04/20 00:16:10;;;;;;;13.70;8.50;;;10.40;99.90;;;;;;5030643;28;20045;-59
2022/04/20 00:18:37;;;;;;;19.98;8.95;;;10.40;99.90;;;;;;5026863;28;20041;-59
2022/04/20 00:21:04;;;;;;;17.25;8.65;;;10.30;99.90;;;;;;5030092;28;20127;-59
2022/04/20 00:23:31;;;;;;;13.18;8.88;;;10.30;99.90;;;;;;5031679;28;20045;-58
2022/04/20 00:25:57;;;;;;;16.85;8.52;;;10.30;99.90;;;;;;5031618;28;20084;-59
2022/04/20 00:28:24;;;;;;;12.90;8.00;;;10.20;99.90;;;;;;5011448;28;20464;-59
2022/04/20 00:30:51;;;;;;;18.70;8.50;;;10.10;99.90;;;;;;5031311;28;20118;-58
2022/04/20 00:33:18;;;;;;;13.60;8.77;;;10.10;99.90;;;;;;5031417;28;20042;-61
2022/04/20 00:35:45;;;;;;;16.48;8.75;;;10.00;99.90;;;;;;5031404;28;20124;-58
2022/04/20 00:38:12;;;;;;;17.88;8.68;;;9.90;99.90;;;;;;5018542;28;20090;-60
2022/04/20 00:40:39;;;;;;;18.42;9.18;;;9.80;99.90;;;;;;5029948;28;20049;-60
2022/04/20 00:43:06;;;;;;;20.42;8.82;;;9.80;99.90;;;;;;5031365;28;20049;-60
2022/04/20 00:45:34;;;;;;;16.00;9.18;;;9.70;99.90;;;;;;5029963;28;20076;-60
2022/04/20 00:48:02;;;;;;;17.20;7.97;;;9.70;99.90;;;;;;5030089;28;20092;-58
2022/04/20 00:50:29;;;;;;;18.83;8.93;;;9.70;99.90;;;;;;5026153;28;20077;-59
2022/04/20 00:52:56;;;;;;;15.23;8.88;;;9.70;99.90;;;;;;5028687;28;20045;-59
2022/04/20 00:55:28;;;;;;;14.68;8.32;;;9.70;99.90;;;;;;5031194;28;20052;-58
2022/04/20 00:57:54;;;;;;;16.95;9.10;;;9.60;99.90;;;;;;5030008;28;20042;-60
2022/04/20 01:00:21;;;;;;;15.32;9.00;;;9.70;99.90;;;;;;5031000;28;20096;-60
2022/04/20 01:02:48;;;;;;;13.48;8.25;;;9.60;99.90;;;;;;5012087;28;20054;-60
2022/04/20 01:05:15;;;;;;;16.77;9.80;;;9.60;99.90;;;;;;5029619;28;20071;-61
2022/04/20 01:07:41;;;;;;;15.20;8.85;;;9.60;99.90;;;;;;5021438;28;20041;-59
2022/04/20 01:10:08;;;;;;;17.73;9.50;;;9.60;99.90;;;;;;5018936;28;20049;-59
2022/04/20 01:12:35;;;;;;;18.55;8.93;;;9.60;99.90;;;;;;5030673;28;20058;-60
2022/04/20 01:15:04;;;;;;;16.70;9.57;;;9.50;99.90;;;;;;5012857;28;20511;-60
2022/04/20 01:17:31;;;;;;;16.10;8.40;;;9.50;99.90;;;;;;5030084;28;20045;-59
2022/04/20 01:19:57;;;;;;;21.08;8.98;;;9.50;99.90;;;;;;5029646;28;20084;-60
2022/04/20 01:22:24;;;;;;;18.75;9.02;;;9.40;99.90;;;;;;5030609;28;20451;-60
2022/04/20 01:24:51;;;;;;;16.38;9.68;;;9.50;99.90;;;;;;5030750;28;20092;-59
2022/04/20 01:27:18;;;;;;;19.48;11.07;;;9.50;99.90;;;;;;5033154;28;20552;-59
2022/04/20 01:29:45;;;;;;;14.43;9.52;;;9.40;99.90;;;;;;5032821;28;20057;-59
2022/04/20 01:32:12;;;;;;;23.70;9.88;;;9.40;99.90;;;;;;5032316;28;20042;-60
2022/04/20 01:34:38;;;;;;;17.52;10.15;;;9.40;99.90;;;;;;5033944;28;20175;-60
2022/04/20 01:37:05;;;;;;;18.40;9.30;;;9.40;99.90;;;;;;5029115;28;20557;-60
2022/04/20 01:39:32;;;;;;;18.38;10.00;;;9.40;99.90;;;;;;5034480;28;20084;-59
2022/04/20 01:41:59;;;;;;;18.45;10.45;;;9.40;99.90;;;;;;5033617;28;20180;-60
2022/04/20 01:44:25;;;;;;;17.50;9.23;;;9.40;99.90;;;;;;5034410;28;20050;-59
2022/04/20 01:46:52;;;;;;;21.08;9.35;;;9.30;99.90;;;;;;5032801;28;20527;-60
2022/04/20 01:49:19;;;;;;;21.85;10.02;;;9.30;99.90;;;;;;5035231;28;20076;-60
2022/04/20 01:51:52;;;;;;;14.02;9.13;;;9.30;99.90;;;;;;5035942;28;20485;-60
2022/04/20 01:54:22;;;;;;;17.05;10.00;;;9.30;99.90;;;;;;5036553;28;20049;-60
2022/04/20 01:56:50;;;;;;;18.80;10.10;;;9.40;99.90;;;;;;5034808;28;20560;-59
2022/04/20 01:59:18;;;;;;;21.50;11.00;;;9.30;99.90;;;;;;5037029;28;20091;-60
2022/04/20 02:04:31;;;;;;;18.70;10.05;;;9.30;99.90;;;;;;5036001;28;20055;-60
2022/04/20 02:06:58;;;;;;;18.35;10.52;;;9.30;99.90;;;;;;5036162;28;20103;-59
2022/04/20 02:09:24;;;;;;;22.33;10.50;;;9.20;99.90;;;;;;5034319;28;20107;-59
2022/04/20 02:11:51;;;;;;;17.15;10.80;;;9.20;99.90;;;;;;5033090;28;20445;-59
2022/04/20 02:14:18;;;;;;;21.55;10.93;;;9.10;99.90;;;;;;5036276;28;20045;-59
2022/04/20 02:16:45;;;;;;;17.98;10.52;;;9.10;99.90;;;;;;5035784;28;20080;-59
2022/04/20 02:19:12;;;;;;;17.92;10.85;;;9.10;99.90;;;;;;5033939;28;20124;-59
2022/04/20 02:21:39;;;;;;;19.58;10.82;;;9.10;99.90;;;;;;5033165;28;20073;-59
2022/04/20 02:24:05;;;;;;;20.65;11.77;;;9.10;99.90;;;;;;5033068;28;20052;-59
2022/04/20 02:26:32;;;;;;;23.60;11.88;;;9.10;99.90;;;;;;5033349;28;20528;-61
2022/04/20 02:28:59;;;;;;;24.13;11.43;;;9.10;99.90;;;;;;5033171;28;20072;-59
2022/04/20 02:31:26;;;;;;;24.33;10.88;;;9.10;99.90;;;;;;5033465;28;20053;-59
2022/04/20 02:33:53;;;;;;;27.15;12.20;;;9.00;99.90;;;;;;5032880;28;20641;-59
2022/04/20 02:36:19;;;;;;;21.58;12.45;;;9.00;99.90;;;;;;5032752;28;20077;-61
2022/04/20 02:38:46;;;;;;;17.17;10.65;;;9.00;99.90;;;;;;5025387;28;20046;-59
2022/04/20 02:41:13;;;;;;;23.85;12.05;;;9.00;99.90;;;;;;5015067;28;20049;-59
2022/04/20 02:43:40;;;;;;;18.25;10.80;;;9.00;99.90;;;;;;5031247;28;20076;-60
2022/04/20 02:46:07;;;;;;;21.17;10.93;;;9.10;99.90;;;;;;5031579;28;20045;-60
2022/04/20 02:48:35;;;;;;;21.70;11.88;;;9.00;99.90;;;;;;5014867;28;20620;-60
2022/04/20 02:51:02;;;;;;;24.42;13.13;;;9.10;99.90;;;;;;5032154;28;20130;-59
2022/04/20 02:53:29;;;;;;;24.95;12.77;;;9.00;99.90;;;;;;5032391;28;20050;-60
2022/04/20 02:55:55;;;;;;;18.38;11.20;;;9.00;99.90;;;;;;5032904;28;20499;-58
2022/04/20 02:58:22;;;;;;;17.23;10.85;;;9.00;99.90;;;;;;5032516;28;20069;-59
2022/04/20 03:00:49;;;;;;;17.67;11.27;;;9.00;99.90;;;;;;5020513;28;20042;-59
2022/04/20 03:03:16;;;;;;;22.70;11.60;;;9.00;99.90;;;;;;5031362;28;20041;-59
2022/04/20 03:05:42;;;;;;;17.83;11.18;;;9.00;99.90;;;;;;5032912;28;20060;-59
2022/04/20 03:08:09;;;;;;;20.98;11.30;;;9.00;99.90;;;;;;5018779;28;20074;-59
2022/04/20 03:10:36;;;;;;;23.00;12.52;;;9.00;99.90;;;;;;5030623;28;20547;-58
2022/04/20 03:13:03;;;;;;;19.15;10.80;;;9.10;99.90;;;;;;5030874;28;20053;-59
2022/04/20 03:15:30;;;;;;;17.52;11.40;;;9.10;99.90;;;;;;5032046;28;20088;-59
2022/04/20 03:17:57;;;;;;;22.10;13.13;;;9.00;99.90;;;;;;5031171;28;20128;-59
2022/04/20 03:20:24;;;;;;;22.02;12.27;;;9.10;99.90;;;;;;5029175;28;20382;-59
2022/04/20 03:22:51;;;;;;;20.05;11.50;;;9.10;99.90;;;;;;5011294;28;20049;-60
2022/04/20 03:25:18;;;;;;;25.90;14.77;;;9.10;99.90;;;;;;5026560;28;20084;-59
2022/04/20 03:27:45;;;;;;;24.83;12.32;;;9.10;99.90;;;;;;5031793;28;20046;-59
2022/04/20 03:30:13;;;;;;;26.25;13.20;;;9.10;99.90;;;;;;5032060;28;20053;-60
2022/04/20 03:32:40;;;;;;;31.48;13.25;;;9.00;99.90;;;;;;5031877;28;20048;-60
2022/04/20 03:35:08;;;;;;;20.50;11.98;;;9.00;99.90;;;;;;5030931;28;20088;-60
2022/04/20 03:37:34;;;;;;;23.48;13.10;;;9.00;99.90;;;;;;5031310;28;20576;-60
2022/04/20 03:40:02;;;;;;;24.88;14.70;;;9.00;99.90;;;;;;5030745;28;20420;-58
2022/04/20 03:42:29;;;;;;;21.92;12.57;;;8.90;99.90;;;;;;5030470;28;20057;-59
2022/04/20 03:44:56;;;;;;;24.55;14.57;;;9.00;99.90;;;;;;5030404;28;20453;-59
2022/04/20 03:47:23;;;;;;;22.85;12.85;;;9.00;99.90;;;;;;5031244;28;20045;-60
2022/04/20 03:49:49;;;;;;;25.10;12.60;;;9.00;99.90;;;;;;5029439;28;20048;-60
2022/04/20 03:52:16;;;;;;;26.83;14.45;;;9.00;99.90;;;;;;5030452;28;20061;-59
2022/04/20 03:54:43;;;;;;;29.98;14.85;;;9.00;99.90;;;;;;5031312;28;20581;-59
2022/04/20 03:57:10;;;;;;;26.83;14.00;;;9.00;99.90;;;;;;5031401;28;20045;-60
2022/04/20 03:59:38;;;;;;;24.20;13.25;;;9.00;99.90;;;;;;5031475;28;20508;-59
2022/04/20 04:02:05;;;;;;;27.83;15.98;;;8.90;99.90;;;;;;5031532;28;20085;-59
2022/04/20 04:04:32;;;;;;;28.60;14.10;;;8.90;99.90;;;;;;5031405;28;20045;-59
2022/04/20 04:06:59;;;;;;;27.20;14.85;;;8.90;99.90;;;;;;5031174;28;20052;-59
2022/04/20 04:09:26;;;;;;;24.88;14.48;;;8.80;99.90;;;;;;5031387;28;20504;-59
2022/04/20 04:11:53;;;;;;;24.00;14.90;;;8.90;99.90;;;;;;5030980;28;20052;-59
2022/04/20 04:14:20;;;;;;;23.92;14.80;;;8.80;99.90;;;;;;5031225;28;20045;-60
2022/04/20 04:16:47;;;;;;;28.25;13.93;;;8.80;99.90;;;;;;5030541;28;20493;-59
2022/04/20 04:19:14;;;;;;;27.85;13.77;;;8.80;99.90;;;;;;5022281;28;20187;-60
2022/04/20 04:21:42;;;;;;;26.10;15.93;;;8.80;99.90;;;;;;5019383;28;20120;-60
2022/04/20 04:24:34;;;;;;;27.70;15.38;;;8.80;99.90;;;;;;5030930;28;20049;-60
2022/04/20 04:26:57;;;;;;;33.58;15.73;;;8.80;99.90;;;;;;5030578;28;20073;-59
2022/04/20 04:29:24;;;;;;;27.38;15.40;;;8.80;99.90;;;;;;5031089;28;20046;-59
2022/04/20 04:31:51;;;;;;;27.58;14.82;;;8.70;99.90;;;;;;5013271;28;20132;-58
2022/04/20 04:34:18;;;;;;;26.92;14.20;;;8.70;99.90;;;;;;5029835;28;20088;-59
2022/04/20 04:36:45;;;;;;;25.10;15.45;;;8.70;99.90;;;;;;5029348;28;20490;-59
2022/04/20 04:39:14;;;;;;;30.98;17.45;;;8.70;99.90;;;;;;5029763;28;20073;-57
2022/04/20 04:41:42;;;;;;;26.33;15.20;;;8.70;99.90;;;;;;5030769;28;20110;-60
2022/04/20 04:44:09;;;;;;;34.88;16.63;;;8.70;99.90;;;;;;5030147;28;20045;-60
2022/04/20 04:49:21;;;;;;;32.83;15.90;;;8.70;99.90;;;;;;5030119;28;20050;-60
2022/04/20 04:51:48;;;;;;;29.25;14.73;;;8.70;99.90;;;;;;5029547;28;20129;-59
2022/04/20 04:54:15;;;;;;;29.05;16.52;;;8.60;99.90;;;;;;5029882;28;20077;-59
2022/04/20 04:56:42;;;;;;;31.83;16.98;;;8.60;99.90;;;;;;5030976;28;20188;-60
2022/04/20 04:59:09;;;;;;;24.55;15.77;;;8.60;99.90;;;;;;5031024;28;20049;-59
2022/04/20 05:01:36;;;;;;;27.60;16.63;;;8.60;99.90;;;;;;5032453;28;20398;-59
2022/04/20 05:04:03;;;;;;;31.50;17.15;;;8.60;99.90;;;;;;5034429;28;20144;-60
2022/04/20 05:06:30;;;;;;;29.85;16.00;;;8.50;99.90;;;;;;5032060;28;20133;-59
2022/04/20 05:08:57;;;;;;;30.95;16.73;;;8.50;99.90;;;;;;5013180;28;20057;-60
2022/04/20 05:11:24;;;;;;;29.75;16.90;;;8.50;99.90;;;;;;5034888;28;20049;-59
2022/04/20 05:13:51;;;;;;;29.60;16.25;;;8.50;99.90;;;;;;5034086;28;20132;-60
2022/04/20 05:16:17;;;;;;;29.73;16.52;;;8.60;99.90;;;;;;5034906;28;20081;-59
2022/04/20 05:18:51;;;;;;;34.45;17.75;;;8.60;99.90;;;;;;5031311;28;20083;-60
2022/04/20 05:21:18;;;;;;;29.55;16.25;;;8.60;99.90;;;;;;5034599;28;20073;-60
2022/04/20 05:23:45;;;;;;;32.75;15.75;;;8.60;99.90;;;;;;5034164;28;20558;-60
2022/04/20 05:26:12;;;;;;;28.50;15.73;;;8.60;99.90;;;;;;5033249;28;20088;-60
2022/04/20 05:28:38;;;;;;;33.83;17.08;;;8.60;99.90;;;;;;5034216;28;20079;-60
2022/04/20 05:31:06;;;;;;;33.38;16.67;;;8.70;99.90;;;;;;5034327;28;20096;-59
2022/04/20 05:33:34;;;;;;;29.08;16.20;;;8.70;99.90;;;;;;5016364;28;20049;-59
2022/04/20 05:36:01;;;;;;;31.00;17.52;;;8.70;99.90;;;;;;5028362;28;20417;-59
2022/04/20 05:43:58;;;;;;;32.72;16.90;;;8.80;99.90;;;;;;5033351;28;20088;-60
2022/04/20 05:46:25;;;;;;;26.40;16.67;;;8.80;99.90;;;;;;5028746;28;20077;-60
2022/04/20 05:48:52;;;;;;;32.75;16.98;;;8.80;99.90;;;;;;5025550;28;20128;-59
2022/04/20 05:51:19;;;;;;;30.70;16.58;;;8.80;99.90;;;;;;5032052;28;20080;-59
2022/04/20 05:53:46;;;;;;;27.20;15.75;;;8.90;99.90;;;;;;5032280;28;20045;-60
2022/04/20 05:56:13;;;;;;;29.25;16.55;;;8.90;99.90;;;;;;5032265;28;20050;-59
2022/04/20 05:58:40;;;;;;;30.50;17.52;;;8.90;99.90;;;;;;5032755;28;20132;-59
2022/04/20 06:01:07;;;;;;;32.30;16.17;;;9.00;99.90;;;;;;5033575;28;20120;-59
2022/04/20 06:03:33;;;;;;;29.08;15.88;;;9.00;99.90;;;;;;5033920;28;20041;-59
2022/04/20 06:06:02;;;;;;;36.67;16.65;;;9.10;99.90;;;;;;5033574;28;20091;-59
2022/04/20 06:08:30;;;;;;;33.80;16.60;;;9.20;99.90;;;;;;5033824;28;20049;-59
2022/04/20 06:10:58;;;;;;;37.78;17.17;;;9.30;99.90;;;;;;5031883;28;20390;-60
2022/04/20 06:13:25;;;;;;;32.50;16.58;;;9.40;99.90;;;;;;5033647;28;20077;-59
2022/04/20 06:15:52;;;;;;;31.30;15.05;;;9.40;99.90;;;;;;5031932;28;20501;-59
2022/04/20 06:18:19;;;;;;;27.80;15.15;;;9.50;99.90;;;;;;5012499;28;20077;-59
2022/04/20 06:20:46;;;;;;;28.10;15.40;;;9.50;99.90;;;;;;5015483;28;20128;-59
2022/04/20 06:23:13;;;;;;;31.08;15.27;;;9.60;99.90;;;;;;5031791;28;20128;-59
2022/04/20 06:25:40;;;;;;;30.58;16.35;;;9.70;99.90;;;;;;5031279;28;20053;-59
2022/04/20 06:28:07;;;;;;;30.58;14.65;;;9.70;99.90;;;;;;5031916;28;20546;-61
2022/04/20 06:30:34;;;;;;;28.08;13.85;;;9.80;99.90;;;;;;5031659;28;20073;-59
2022/04/20 06:33:00;;;;;;;39.03;17.17;;;9.80;99.90;;;;;;5031588;28;20045;-60
2022/04/20 06:35:27;;;;;;;34.03;14.25;;;9.90;99.90;;;;;;5032694;28;20133;-59
2022/04/20 06:37:54;;;;;;;22.92;13.27;;;9.90;99.90;;;;;;5029841;28;20500;-59
2022/04/20 06:40:21;;;;;;;27.77;12.88;;;10.00;99.90;;;;;;5063054;28;20132;-59
2022/04/20 06:42:48;;;;;;;34.35;14.00;;;10.10;99.90;;;;;;5029976;28;20095;-59
2022/04/20 06:45:14;;;;;;;25.88;12.68;;;10.10;99.90;;;;;;5031487;28;20077;-60
2022/04/20 06:47:41;;;;;;;27.70;11.13;;;10.20;99.90;;;;;;5028567;28;20045;-59
2022/04/20 06:50:08;;;;;;;26.10;13.30;;;10.20;99.90;;;;;;5029497;28;20053;-59
2022/04/20 07:00:53;;;;;;;26.17;11.30;;;10.50;99.90;;;;;;5028280;28;20050;-59
2022/04/20 07:03:20;;;;;;;18.27;10.13;;;10.50;99.90;;;;;;5008784;28;20068;-60
2022/04/20 07:05:47;;;;;;;24.90;11.50;;;10.50;99.90;;;;;;5022057;28;20107;-60
2022/04/20 07:08:13;;;;;;;22.55;11.60;;;10.50;99.90;;;;;;5029386;28;20073;-59
2022/04/20 07:10:40;;;;;;;22.15;10.05;;;10.60;99.90;;;;;;5028712;28;20080;-61
2022/04/20 07:13:07;;;;;;;26.50;11.10;;;10.60;99.90;;;;;;5031302;28;20068;-59
2022/04/20 07:15:34;;;;;;;43.50;13.30;;;10.60;99.90;;;;;;5030367;28;20045;-60
2022/04/20 07:18:01;;;;;;;24.38;10.55;;;10.60;99.90;;;;;;5030135;28;20115;-60
2022/04/20 07:20:29;;;;;;;21.05;11.00;;;10.60;99.90;;;;;;5028926;28;20133;-59
2022/04/20 07:22:56;;;;;;;28.40;10.10;;;10.60;99.90;;;;;;5029280;28;20503;-59
2022/04/20 07:25:23;;;;;;;21.98;11.13;;;10.60;99.90;;;;;;5012768;28;20073;-59
2022/04/20 07:27:50;;;;;;;21.95;11.23;;;10.60;99.90;;;;;;5029256;28;20045;-59
2022/04/20 07:30:16;;;;;;;24.20;10.73;;;10.70;99.90;;;;;;5029944;28;20089;-60
2022/04/20 07:32:44;;;;;;;25.67;10.63;;;10.60;99.90;;;;;;5029876;28;20041;-60
2022/04/20 07:35:11;;;;;;;24.25;10.63;;;10.70;99.90;;;;;;5010942;28;20069;-61
2022/04/20 07:37:38;;;;;;;22.33;10.90;;;10.60;99.90;;;;;;5012329;28;20055;-59
2022/04/20 07:40:05;;;;;;;19.58;10.50;;;10.60;99.90;;;;;;5030860;28;20128;-60
2022/04/20 07:42:32;;;;;;;16.33;10.63;;;10.60;99.90;;;;;;5030211;28;20131;-59
2022/04/20 07:44:59;;;;;;;27.83;10.50;;;10.50;99.90;;;;;;5030451;28;20126;-60
2022/04/20 07:47:28;;;;;;;24.48;11.20;;;10.60;99.90;;;;;;5030880;28;20057;-58
2022/04/20 07:52:45;;;;;;;22.02;9.60;;;10.80;99.90;;;;;;5026252;28;20049;-59
2022/04/20 07:55:14;;;;;;;18.98;9.38;;;10.90;99.90;;;;;;5029944;28;20441;-60
2022/04/20 07:57:43;;;;;;;21.13;10.45;;;10.90;99.90;;;;;;5021308;28;20052;-59
2022/04/20 08:00:10;;;;;;;35.60;11.82;;;11.00;99.90;;;;;;5028465;28;20049;-59
2022/04/20 08:02:37;;;;;;;22.23;9.30;;;11.10;99.90;;;;;;5029451;28;20132;-59
2022/04/20 08:05:05;;;;;;;31.13;10.10;;;11.20;99.90;;;;;;5027752;28;20456;-59
2022/04/20 08:07:32;;;;;;;26.65;10.55;;;11.30;99.90;;;;;;5028132;28;20045;-60
2022/04/20 08:09:59;;;;;;;24.10;9.82;;;11.40;99.90;;;;;;5028977;28;20077;-60
2022/04/20 08:12:28;;;;;;;17.90;8.98;;;11.40;99.90;;;;;;5027643;28;20053;-59
2022/04/20 08:14:55;;;;;;;25.27;9.73;;;11.50;99.90;;;;;;5028530;28;20052;-59
2022/04/20 08:17:21;;;;;;;23.95;9.50;;;11.60;99.90;;;;;;5030416;28;20103;-59
2022/04/20 08:19:48;;;;;;;18.40;9.15;;;11.60;99.90;;;;;;5028987;28;20046;-58
2022/04/20 08:22:15;;;;;;;19.00;8.80;;;11.70;99.90;;;;;;5030122;28;20583;-59
2022/04/20 08:24:43;;;;;;;17.35;8.07;;;11.70;99.90;;;;;;5030214;28;20125;-59
2022/04/20 08:27:10;;;;;;;23.27;10.60;;;11.70;99.90;;;;;;5030677;28;20107;-59
2022/04/20 08:29:37;;;;;;;19.48;8.98;;;11.80;99.90;;;;;;5030465;28;20048;-60
2022/04/20 08:32:04;;;;;;;27.38;8.63;;;11.90;99.90;;;;;;5029358;28;20049;-59
2022/04/20 08:34:31;;;;;;;25.88;8.73;;;12.00;99.90;;;;;;5029937;28;20045;-60
2022/04/20 08:37:18;;;;;;;24.38;9.95;;;12.10;99.90;;;;;;5016739;28;20141;-59
2022/04/20 08:39:46;;;;;;;22.00;8.70;;;12.20;99.90;;;;;;5021389;28;20041;-60
2022/04/20 08:42:14;;;;;;;20.23;8.32;;;12.30;99.90;;;;;;5023712;28;20073;-60
2022/04/20 08:44:45;;;;;;;24.88;9.35;;;12.40;99.90;;;;;;5034079;28;20097;-60
2022/04/20 08:47:19;;;;;;;19.77;7.80;;;12.40;99.90;;;;;;5032944;28;20054;-60
2022/04/20 08:49:48;;;;;;;20.30;7.78;;;12.50;99.90;;;;;;5014716;28;20053;-60
2022/04/20 08:52:41;;;;;;;16.63;7.60;;;12.50;99.90;;;;;;5034184;28;20096;-60
2022/04/20 08:55:15;;;;;;;19.90;8.38;;;12.60;99.90;;;;;;5033102;28;20054;-59
2022/04/20 08:57:44;;;;;;;19.23;7.18;;;12.70;99.90;;;;;;5022858;28;20099;-60
2022/04/20 09:00:22;;;;;;;18.85;7.38;;;12.80;99.90;;;;;;5032432;28;20088;-60
2022/04/20 09:03:01;;;;;;;21.58;7.38;;;13.00;99.90;;;;;;5032663;28;20049;-60
2022/04/20 09:05:30;;;;;;;20.05;8.20;;;13.10;99.90;;;;;;5033825;28;20045;-59
2022/04/20 09:07:57;;;;;;;14.15;7.63;;;13.30;99.90;;;;;;5023734;28;20053;-61
2022/04/20 09:10:24;;;;;;;16.05;6.80;;;13.40;99.90;;;;;;5032481;28;20054;-60
2022/04/20 09:13:11;;;;;;;13.40;5.90;;;13.40;99.90;;;;;;5032893;28;20060;-59
2022/04/20 09:15:39;;;;;;;19.23;7.30;;;13.50;99.80;;;;;;5032998;28;20401;-59
2022/04/20 09:18:06;;;;;;;15.15;7.00;;;13.50;99.90;;;;;;5031910;28;20045;-59
2022/04/20 09:20:34;;;;;;;18.88;7.32;;;13.60;99.90;;;;;;5016476;28;20050;-60
2022/04/20 09:23:09;;;;;;;18.60;8.30;;;13.70;99.90;;;;;;5033004;28;20045;-59
2022/04/20 09:25:48;;;;;;;23.92;6.78;;;13.80;99.70;;;;;;5034046;28;20048;-59
2022/04/20 09:28:15;;;;;;;13.88;5.95;;;13.90;99.50;;;;;;5033023;28;20045;-59
2022/04/20 09:30:43;;;;;;;17.52;6.60;;;14.00;99.20;;;;;;5034017;28;20555;-59
2022/04/20 09:33:10;;;;;;;9.82;5.50;;;14.10;98.90;;;;;;5032341;28;20115;-59
2022/04/20 09:35:41;;;;;;;14.93;5.63;;;14.20;98.40;;;;;;5032695;28;20075;-59
2022/04/20 09:38:08;;;;;;;14.63;6.93;;;14.30;97.70;;;;;;5030411;28;20053;-59
2022/04/20 09:40:37;;;;;;;13.57;4.47;;;14.70;98.50;;;;;;5015059;28;20053;-60
2022/04/20 09:43:06;;;;;;;12.98;4.72;;;15.00;97.10;;;;;;5032424;28;20414;-60
2022/04/20 09:45:34;;;;;;;11.23;4.35;;;15.40;95.00;;;;;;5031163;28;20045;-60
2022/04/20 09:51:08;;;;;;;15.85;4.15;;;16.00;92.20;;;;;;5031318;28;20069;-60
2022/04/20 09:53:35;;;;;;;11.80;3.88;;;16.30;92.30;;;;;;5031335;28;20152;-60
2022/04/20 09:56:21;;;;;;;10.57;4.07;;;16.60;93.80;;;;;;5032555;28;20049;-60
2022/04/20 09:59:17;;;;;;;11.95;3.45;;;16.80;87.30;;;;;;5031870;28;20054;-60
2022/04/20 10:01:45;;;;;;;6.47;3.83;;;17.00;87.70;;;;;;5023825;28;20160;-60
2022/04/20 10:04:12;;;;;;;13.32;4.35;;;17.20;92.80;;;;;;5030715;28;20045;-60
2022/04/20 10:06:43;;;;;;;21.55;5.70;;;17.40;92.00;;;;;;5031210;28;20041;-60
2022/04/20 10:09:10;;;;;;;7.05;3.47;;;17.50;92.50;;;;;;5032238;28;20049;-61
2022/04/20 10:11:36;;;;;;;9.55;3.58;;;17.70;91.90;;;;;;5014915;28;20053;-59
2022/04/20 10:16:50;;;;;;;9.40;3.25;;;17.80;89.70;;;;;;5031921;28;20085;-64
2022/04/20 10:19:28;;;;;;;10.00;3.33;;;17.50;91.30;;;;;;5031681;28;20436;-61
2022/04/20 10:21:55;;;;;;;14.60;3.08;;;17.30;83.40;;;;;;5011124;28;20138;-59
2022/04/20 10:24:25;;;;;;;6.70;2.90;;;17.00;89.70;;;;;;5027197;28;20049;-60
2022/04/20 10:26:52;;;;;;;10.85;2.75;;;16.70;89.70;;;;;;5014071;28;20053;-59
2022/04/20 10:29:42;;;;;;;5.55;2.72;;;16.50;89.50;;;;;;5029970;28;20486;-60
2022/04/20 10:32:10;;;;;;;11.07;2.70;;;16.40;85.20;;;;;;5012015;28;20468;-60
2022/04/20 10:34:37;;;;;;;12.30;2.60;;;16.30;89.90;;;;;;5024769;28;20119;-60
2022/04/20 10:37:05;;;;;;;7.43;2.88;;;16.30;89.20;;;;;;5014150;28;119921;-60
2022/04/20 10:39:36;;;;;;;7.07;3.05;;;16.30;87.20;;;;;;5023475;28;20091;-60
2022/04/20 10:42:11;;;;;;;21.23;3.53;;;16.30;86.50;;;;;;5015451;28;20052;-60
2022/04/20 10:44:58;;;;;;;9.98;3.67;;;16.30;85.40;;;;;;5032238;28;20073;-60
2022/04/20 10:47:35;;;;;;;23.70;3.85;;;16.30;86.50;;;;;;5031709;28;20091;-59
2022/04/20 10:50:20;;;;;;;12.35;3.55;;;16.40;78.20;;;;;;5030412;28;20049;-60
2022/04/20 10:52:48;;;;;;;9.13;2.92;;;16.40;78.50;;;;;;5031125;28;20139;-60
2022/04/20 10:55:15;;;;;;;9.52;3.38;;;16.50;83.30;;;;;;5031102;28;20087;-59
2022/04/20 10:57:42;;;;;;;11.60;3.65;;;16.60;82.60;;;;;;5031182;28;20060;-60
2022/04/20 11:00:19;;;;;;;11.10;3.25;;;16.60;81.80;;;;;;5031191;28;20136;-60
2022/04/20 11:03:00;;;;;;;8.50;3.63;;;16.60;75.60;;;;;;5031406;28;20492;-61
2022/04/20 11:05:26;;;;;;;15.68;2.85;;;16.60;76.20;;;;;;5031293;28;20552;-61
2022/04/20 11:08:28;;;;;;;8.00;3.17;;;16.60;83.40;;;;;;5031128;28;20129;-60
2022/04/20 11:19:47;;;;;;;16.38;4.07;;;16.80;74.30;;;;;;5024582;28;20125;-60
2022/04/20 11:22:14;;;;;;;7.65;3.10;;;16.90;75.50;;;;;;5030647;28;20132;-59
2022/04/20 11:24:41;;;;;;;5.38;3.33;;;17.10;79.30;;;;;;5031502;28;20551;-60
2022/04/20 11:27:08;;;;;;;14.18;3.90;;;17.20;78.30;;;;;;5030322;28;20088;-60
2022/04/20 11:29:35;;;;;;;5.32;3.42;;;17.20;71.80;;;;;;5030488;28;20041;-60
2022/04/20 11:32:09;;;;;;;6.65;4.30;;;17.30;73.10;;;;;;5013767;28;20061;-60
2022/04/20 11:34:38;;;;;;;5.75;3.38;;;17.20;69.30;;;;;;5015062;28;20091;-60
2022/04/20 11:37:12;;;;;;;17.27;4.55;;;17.10;73.50;;;;;;5030975;28;20053;-60
2022/04/20 11:39:39;;;;;;;;;;;17.10;70.10;;;;;;5031961;28;20456;-59
2022/04/20 11:42:06;;;;;;;7.78;4.05;;;17.00;63.30;;;;;;5031207;28;19925;-59
2022/04/20 11:44:36;;;;;;;8.48;4.07;;;17.00;72.20;;;;;;5012134;28;20069;-59
2022/04/20 11:47:08;;;;;;;8.77;4.30;;;17.10;69.50;;;;;;5025569;28;20057;-59
2022/04/20 11:49:42;;;;;;;6.65;3.05;;;17.10;72.40;;;;;;5031555;28;20045;-60
2022/04/20 11:52:11;;;;;;;8.35;4.10;;;17.20;67.00;;;;;;5031428;28;20045;-61
2022/04/20 11:54:38;;;;;;;9.82;4.18;;;17.20;70.60;;;;;;5031436;28;20563;-60
2022/04/20 11:57:10;;;;;;;11.02;3.92;;;17.30;72.30;;;;;;5030325;28;20049;-59
2022/04/20 11:59:46;;;;;;;11.88;4.03;;;17.40;70.00;;;;;;5033803;28;20107;-59
2022/04/20 12:02:14;;;;;;;6.90;3.63;;;17.40;60.20;;;;;;5034159;28;20049;-60
2022/04/20 12:04:42;;;;;;;6.78;3.47;;;17.30;61.10;;;;;;5033947;28;20157;-61
2022/04/20 12:07:09;;;;;;;9.13;3.60;;;17.20;65.90;;;;;;5033737;28;20492;-59
2022/04/20 12:09:39;;;;;;;16.17;4.30;;;17.30;61.20;;;;;;5033063;28;20077;-59
2022/04/20 12:12:10;;;;;;;8.07;4.05;;;17.20;64.90;;;;;;5017091;28;20045;-60
2022/04/20 12:14:42;;;;;;;8.23;3.38;;;17.30;63.40;;;;;;5032790;28;20053;-60
2022/04/20 12:17:20;;;;;;;13.07;3.60;;;17.40;65.30;;;;;;5029223;28;20064;-60
2022/04/20 12:19:48;;;;;;;9.25;3.22;;;17.40;61.50;;;;;;5034389;28;20140;-60
2022/04/20 12:22:17;;;;;;;9.80;4.13;;;17.50;62.30;;;;;;5032372;28;20548;-59
2022/04/20 12:24:44;;;;;;;5.75;3.80;;;17.50;58.90;;;;;;5003551;28;20054;-59
2022/04/20 12:27:17;;;;;;;6.90;3.97;;;17.50;62.90;;;;;;5001584;28;20045;-61
2022/04/20 12:29:45;;;;;;;9.07;4.00;;;17.50;61.80;;;;;;5033804;28;20042;-59
2022/04/20 12:32:12;;;;;;;16.33;4.20;;;17.50;64.70;;;;;;5032064;28;20051;-59
2022/04/20 12:34:39;;;;;;;15.40;3.95;;;17.60;65.10;;;;;;5033289;28;20515;-59
2022/04/20 12:37:13;;;;;;;11.25;4.25;;;17.60;67.00;;;;;;5037567;28;20062;-59
2022/04/20 12:39:45;;;;;;;17.40;4.72;;;17.70;64.30;;;;;;5025962;28;20568;-61
2022/04/20 12:42:17;;;;;;;8.10;4.00;;;17.70;66.20;;;;;;5010868;28;20061;-61
2022/04/20 12:44:53;;;;;;;10.60;4.97;;;17.70;65.10;;;;;;5026520;28;20056;-60
2022/04/20 12:47:20;;;;;;;11.75;5.03;;;17.70;64.30;;;;;;5023149;28;20401;-60
2022/04/20 12:49:59;;;;;;;9.48;4.70;;;17.70;65.00;;;;;;5029114;28;20042;-60
2022/04/20 12:52:29;;;;;;;9.15;4.38;;;17.60;60.40;;;;;;5021077;28;20525;-60
2022/04/20 12:54:56;;;;;;;6.97;4.07;;;17.60;65.20;;;;;;5027784;28;20111;-59
2022/04/20 13:03:15;;;;;;;8.13;3.90;;;17.80;62.90;;;;;;5020478;28;20052;-60
2022/04/20 13:05:42;;;;;;;9.55;4.57;;;17.80;63.10;;;;;;5027451;28;20061;-59
2022/04/20 13:08:13;;;;;;;11.00;4.10;;;17.70;63.60;;;;;;5020485;28;20117;-60
2022/04/20 13:10:45;;;;;;;12.40;3.90;;;17.60;60.40;;;;;;5029113;28;20542;-60
2022/04/20 13:13:12;;;;;;;19.38;4.05;;;17.60;63.70;;;;;;5030374;28;20050;-60
2022/04/20 13:15:38;;;;;;;21.10;4.88;;;17.60;62.00;;;;;;5011955;28;20178;-60
2022/04/20 13:18:06;;;;;;;14.95;4.25;;;17.60;63.40;;;;;;5025795;28;20057;-60
2022/04/20 13:20:33;;;;;;;19.20;3.95;;;17.60;61.40;;;;;;5028763;28;20089;-59
2022/04/20 13:22:59;;;;;;;14.57;3.88;;;17.50;61.20;;;;;;5031050;28;20045;-60
2022/04/20 13:28:11;;;;;;;10.00;3.50;;;17.40;63.40;;;;;;5028093;28;20496;-60
2022/04/20 13:30:39;;;;;;;5.57;3.08;;;17.60;61.50;;;;;;5029256;28;20523;-60